Terminal Aerodrome Forecast
Issued by NWS

Home | Current Version | Previous Version | Graphics & Text | Print | Product List | Glossary On
Versions: 1 2 3 4 5 6 7 8 9 10 11 12 13 14 15 16 17 18 19 20 21 22 23 24 25 26 27
000
FTUS43 KICT 182300
TAFCNU
TAF
KCNU 182320Z 1900/1924 08007KT P6SM FEW030
     FM190600 10006KT P6SM OVC010
     FM190900 12005KT 3SM BR OVC008
     FM191500 16008KT P6SM FEW020=

USA.gov is the U.S. government's official web portal to all federal, state and local government web resources and services.